Terminal Aerodrome Forecast
Issued by NWS

Home | Current Version | Previous Version | Text Only | Print | Product List | Glossary On
Versions: 1 2 3 4 5 6 7 8 9 10 11 12 13 14 15 16 17
000
FTUS43 KGLD 140202 AAA
TAFMCK
TAF AMD
KMCK 140202Z 1402/1424 VRB05KT P6SM SCT250
     FM140900 VRB05KT 3SM BR BKN015
      TEMPO 1410/1414 1SM BR BKN005
     FM141500 12006KT P6SM BKN025
     FM141800 12010KT P6SM BKN050=

USA.gov is the U.S. government's official web portal to all federal, state and local government web resources and services.